sensor_id;sensor_type;location;lat;lon;timestamp;temperature;humidity
13754;DHT22;6948;51.216;6.778;2023-04-24T00:00:15;11.90;99.90
13754;DHT22;6948;51.216;6.778;2023-04-24T00:02:41;11.80;99.90
13754;DHT22;6948;51.216;6.778;2023-04-24T00:05:12;11.80;99.90
13754;DHT22;6948;51.216;6.778;2023-04-24T00:07:37;11.80;99.90
13754;DHT22;6948;51.216;6.778;2023-04-24T00:10:03;11.80;99.90
13754;DHT22;6948;51.216;6.778;2023-04-24T00:12:30;11.80;99.90
13754;DHT22;6948;51.216;6.778;2023-04-24T00:14:56;11.80;99.90
13754;DHT22;6948;51.216;6.778;2023-04-24T00:17:22;11.80;99.90
13754;DHT22;6948;51.216;6.778;2023-04-24T00:19:48;11.70;99.90
13754;DHT22;6948;51.216;6.778;2023-04-24T00:22:14;11.70;99.90
13754;DHT22;6948;51.216;6.778;2023-04-24T00:24:40;11.60;99.90
13754;DHT22;6948;51.216;6.778;2023-04-24T00:27:05;11.60;99.90
13754;DHT22;6948;51.216;6.778;2023-04-24T00:29:31;11.60;99.90
13754;DHT22;6948;51.216;6.778;2023-04-24T00:31:57;11.60;99.90
13754;DHT22;6948;51.216;6.778;2023-04-24T00:34:22;11.60;99.90
13754;DHT22;6948;51.216;6.778;2023-04-24T00:36:48;11.60;99.90
13754;DHT22;6948;51.216;6.778;2023-04-24T00:39:19;11.60;99.90
13754;DHT22;6948;51.216;6.778;2023-04-24T00:41:45;11.60;99.90
13754;DHT22;6948;51.216;6.778;2023-04-24T00:44:11;11.60;99.90
13754;DHT22;6948;51.216;6.778;2023-04-24T00:46:37;11.50;99.90
13754;DHT22;6948;51.216;6.778;2023-04-24T00:49:05;11.40;99.90
13754;DHT22;6948;51.216;6.778;2023-04-24T00:51:32;11.50;99.90
13754;DHT22;6948;51.216;6.778;2023-04-24T00:53:58;11.50;99.90
13754;DHT22;6948;51.216;6.778;2023-04-24T00:56:25;11.50;99.90
13754;DHT22;6948;51.216;6.778;2023-04-24T00:58:51;11.50;99.90
13754;DHT22;6948;51.216;6.778;2023-04-24T01:01:18;11.50;99.90
13754;DHT22;6948;51.216;6.778;2023-04-24T01:03:46;11.50;99.90
13754;DHT22;6948;51.216;6.778;2023-04-24T01:06:12;11.50;99.90
13754;DHT22;6948;51.216;6.778;2023-04-24T01:08:38;11.50;99.90
13754;DHT22;6948;51.216;6.778;2023-04-24T01:11:05;11.40;99.90
13754;DHT22;6948;51.216;6.778;2023-04-24T01:13:32;11.30;99.90
13754;DHT22;6948;51.216;6.778;2023-04-24T01:15:58;11.30;99.90
13754;DHT22;6948;51.216;6.778;2023-04-24T01:18:24;11.20;99.90
13754;DHT22;6948;51.216;6.778;2023-04-24T01:20:51;11.20;99.90
13754;DHT22;6948;51.216;6.778;2023-04-24T01:23:18;11.10;99.90
13754;DHT22;6948;51.216;6.778;2023-04-24T01:25:44;10.90;99.90
13754;DHT22;6948;51.216;6.778;2023-04-24T01:28:11;10.80;99.90
13754;DHT22;6948;51.216;6.778;2023-04-24T01:30:36;10.70;99.90
13754;DHT22;6948;51.216;6.778;2023-04-24T01:33:02;10.70;99.90
13754;DHT22;6948;51.216;6.778;2023-04-24T01:35:28;10.60;99.90
13754;DHT22;6948;51.216;6.778;2023-04-24T01:37:54;10.50;99.90
13754;DHT22;6948;51.216;6.778;2023-04-24T01:40:20;10.40;99.90
13754;DHT22;6948;51.216;6.778;2023-04-24T01:42:45;10.30;99.90
13754;DHT22;6948;51.216;6.778;2023-04-24T01:45:12;10.30;99.90
13754;DHT22;6948;51.216;6.778;2023-04-24T01:47:39;10.20;99.90
13754;DHT22;6948;51.216;6.778;2023-04-24T01:50:05;10.20;99.90
13754;DHT22;6948;51.216;6.778;2023-04-24T01:52:31;10.20;99.90
13754;DHT22;6948;51.216;6.778;2023-04-24T01:55:00;10.30;99.90
13754;DHT22;6948;51.216;6.778;2023-04-24T01:57:26;10.30;99.90
13754;DHT22;6948;51.216;6.778;2023-04-24T01:59:51;10.30;99.90
13754;DHT22;6948;51.216;6.778;2023-04-24T02:02:17;10.30;99.90
13754;DHT22;6948;51.216;6.778;2023-04-24T02:04:43;10.40;99.90
13754;DHT22;6948;51.216;6.778;2023-04-24T02:07:08;10.30;99.90
13754;DHT22;6948;51.216;6.778;2023-04-24T02:09:34;10.40;99.90
13754;DHT22;6948;51.216;6.778;2023-04-24T02:12:00;10.40;99.90
13754;DHT22;6948;51.216;6.778;2023-04-24T02:14:26;10.40;99.90
13754;DHT22;6948;51.216;6.778;2023-04-24T02:16:51;10.40;99.90
13754;DHT22;6948;51.216;6.778;2023-04-24T02:19:18;10.50;99.90
13754;DHT22;6948;51.216;6.778;2023-04-24T02:21:44;10.50;99.90
13754;DHT22;6948;51.216;6.778;2023-04-24T02:24:10;10.50;99.90
13754;DHT22;6948;51.216;6.778;2023-04-24T02:26:35;10.50;99.90
13754;DHT22;6948;51.216;6.778;2023-04-24T02:29:01;10.50;99.90
13754;DHT22;6948;51.216;6.778;2023-04-24T02:31:27;10.50;99.90
13754;DHT22;6948;51.216;6.778;2023-04-24T02:33:52;10.40;99.90
13754;DHT22;6948;51.216;6.778;2023-04-24T02:36:18;10.50;99.90
13754;DHT22;6948;51.216;6.778;2023-04-24T02:38:44;10.50;99.90
13754;DHT22;6948;51.216;6.778;2023-04-24T02:41:09;10.40;99.90
13754;DHT22;6948;51.216;6.778;2023-04-24T02:43:35;10.50;99.90
13754;DHT22;6948;51.216;6.778;2023-04-24T02:46:01;10.50;99.90
13754;DHT22;6948;51.216;6.778;2023-04-24T02:48:26;10.50;99.90
13754;DHT22;6948;51.216;6.778;2023-04-24T02:50:52;10.60;99.90
13754;DHT22;6948;51.216;6.778;2023-04-24T02:53:18;10.60;99.90
13754;DHT22;6948;51.216;6.778;2023-04-24T02:55:44;10.70;99.90
13754;DHT22;6948;51.216;6.778;2023-04-24T02:58:10;10.60;99.90
13754;DHT22;6948;51.216;6.778;2023-04-24T03:00:36;10.60;99.90
13754;DHT22;6948;51.216;6.778;2023-04-24T03:03:01;10.70;99.90
13754;DHT22;6948;51.216;6.778;2023-04-24T03:05:28;10.60;99.90
13754;DHT22;6948;51.216;6.778;2023-04-24T03:07:53;10.70;99.90
13754;DHT22;6948;51.216;6.778;2023-04-24T03:10:19;10.70;99.90
13754;DHT22;6948;51.216;6.778;2023-04-24T03:12:45;10.70;99.90
13754;DHT22;6948;51.216;6.778;2023-04-24T03:15:10;10.70;99.90
13754;DHT22;6948;51.216;6.778;2023-04-24T03:17:36;10.70;99.90
13754;DHT22;6948;51.216;6.778;2023-04-24T03:20:02;10.70;99.90
13754;DHT22;6948;51.216;6.778;2023-04-24T03:22:28;10.60;99.90
13754;DHT22;6948;51.216;6.778;2023-04-24T03:24:54;10.50;99.90
13754;DHT22;6948;51.216;6.778;2023-04-24T03:27:20;10.60;99.90
13754;DHT22;6948;51.216;6.778;2023-04-24T03:29:46;10.60;99.90
13754;DHT22;6948;51.216;6.778;2023-04-24T03:32:12;10.60;99.90
13754;DHT22;6948;51.216;6.778;2023-04-24T03:34:37;10.70;99.90
13754;DHT22;6948;51.216;6.778;2023-04-24T03:37:03;10.70;99.90
13754;DHT22;6948;51.216;6.778;2023-04-24T03:39:28;10.60;99.90
13754;DHT22;6948;51.216;6.778;2023-04-24T03:41:54;10.60;99.90
13754;DHT22;6948;51.216;6.778;2023-04-24T03:44:19;10.60;99.90
13754;DHT22;6948;51.216;6.778;2023-04-24T03:46:45;10.60;99.90
13754;DHT22;6948;51.216;6.778;2023-04-24T03:49:11;10.60;99.90
13754;DHT22;6948;51.216;6.778;2023-04-24T03:51:36;10.60;99.90
13754;DHT22;6948;51.216;6.778;2023-04-24T03:54:02;10.60;99.90
13754;DHT22;6948;51.216;6.778;2023-04-24T03:56:28;10.60;99.90
13754;DHT22;6948;51.216;6.778;2023-04-24T03:58:54;10.70;99.90
13754;DHT22;6948;51.216;6.778;2023-04-24T04:01:19;10.70;99.90
13754;DHT22;6948;51.216;6.778;2023-04-24T04:03:46;10.60;99.90
13754;DHT22;6948;51.216;6.778;2023-04-24T04:06:12;10.60;99.90
13754;DHT22;6948;51.216;6.778;2023-04-24T04:08:38;10.60;99.90
13754;DHT22;6948;51.216;6.778;2023-04-24T04:11:04;10.60;99.90
13754;DHT22;6948;51.216;6.778;2023-04-24T04:13:29;10.60;99.90
13754;DHT22;6948;51.216;6.778;2023-04-24T04:15:55;10.60;99.90
13754;DHT22;6948;51.216;6.778;2023-04-24T04:18:21;10.60;99.90
13754;DHT22;6948;51.216;6.778;2023-04-24T04:20:46;10.60;99.90
13754;DHT22;6948;51.216;6.778;2023-04-24T04:23:12;10.60;99.90
13754;DHT22;6948;51.216;6.778;2023-04-24T04:25:37;10.60;99.90
13754;DHT22;6948;51.216;6.778;2023-04-24T04:28:03;10.50;99.90
13754;DHT22;6948;51.216;6.778;2023-04-24T04:30:29;10.50;99.90
13754;DHT22;6948;51.216;6.778;2023-04-24T04:32:57;10.50;99.90
13754;DHT22;6948;51.216;6.778;2023-04-24T04:35:23;10.40;99.90
13754;DHT22;6948;51.216;6.778;2023-04-24T04:37:50;10.50;99.90
13754;DHT22;6948;51.216;6.778;2023-04-24T04:40:16;10.50;99.90
13754;DHT22;6948;51.216;6.778;2023-04-24T04:42:42;10.60;99.90
13754;DHT22;6948;51.216;6.778;2023-04-24T04:45:11;10.60;99.90
13754;DHT22;6948;51.216;6.778;2023-04-24T04:47:37;10.60;99.90
13754;DHT22;6948;51.216;6.778;2023-04-24T04:50:03;10.60;99.90
13754;DHT22;6948;51.216;6.778;2023-04-24T04:52:31;10.50;99.90
13754;DHT22;6948;51.216;6.778;2023-04-24T04:54:56;10.50;99.90
13754;DHT22;6948;51.216;6.778;2023-04-24T04:57:22;10.30;99.90
13754;DHT22;6948;51.216;6.778;2023-04-24T04:59:48;10.10;99.90
13754;DHT22;6948;51.216;6.778;2023-04-24T05:02:14;10.10;99.90
13754;DHT22;6948;51.216;6.778;2023-04-24T05:04:39;10.10;99.90
13754;DHT22;6948;51.216;6.778;2023-04-24T05:07:05;10.00;99.90
13754;DHT22;6948;51.216;6.778;2023-04-24T05:09:31;10.10;99.90
13754;DHT22;6948;51.216;6.778;2023-04-24T05:11:57;10.20;99.90
13754;DHT22;6948;51.216;6.778;2023-04-24T05:14:22;10.10;99.90
13754;DHT22;6948;51.216;6.778;2023-04-24T05:16:48;10.10;99.90
13754;DHT22;6948;51.216;6.778;2023-04-24T05:19:14;10.20;99.90
13754;DHT22;6948;51.216;6.778;2023-04-24T05:21:40;10.30;99.90
13754;DHT22;6948;51.216;6.778;2023-04-24T05:24:06;10.30;99.90
13754;DHT22;6948;51.216;6.778;2023-04-24T05:26:32;10.30;99.90
13754;DHT22;6948;51.216;6.778;2023-04-24T05:28:58;10.30;99.90
13754;DHT22;6948;51.216;6.778;2023-04-24T05:31:23;10.20;99.90
13754;DHT22;6948;51.216;6.778;2023-04-24T05:33:49;10.30;99.90
13754;DHT22;6948;51.216;6.778;2023-04-24T05:36:15;10.20;99.90
13754;DHT22;6948;51.216;6.778;2023-04-24T05:38:40;10.30;99.90
13754;DHT22;6948;51.216;6.778;2023-04-24T05:41:06;10.30;99.90
13754;DHT22;6948;51.216;6.778;2023-04-24T05:43:32;10.30;99.90
13754;DHT22;6948;51.216;6.778;2023-04-24T05:45:57;10.50;99.90
13754;DHT22;6948;51.216;6.778;2023-04-24T05:48:23;10.50;99.90
13754;DHT22;6948;51.216;6.778;2023-04-24T05:50:49;10.60;99.90
13754;DHT22;6948;51.216;6.778;2023-04-24T05:53:14;10.60;99.90
13754;DHT22;6948;51.216;6.778;2023-04-24T05:55:41;10.70;99.90
13754;DHT22;6948;51.216;6.778;2023-04-24T05:58:06;10.70;99.90
13754;DHT22;6948;51.216;6.778;2023-04-24T06:00:32;10.80;99.90
13754;DHT22;6948;51.216;6.778;2023-04-24T06:03:00;10.80;99.90
13754;DHT22;6948;51.216;6.778;2023-04-24T06:05:25;10.70;99.90
13754;DHT22;6948;51.216;6.778;2023-04-24T06:07:51;10.80;99.90
13754;DHT22;6948;51.216;6.778;2023-04-24T06:10:17;10.80;99.90
13754;DHT22;6948;51.216;6.778;2023-04-24T06:12:43;10.80;99.90
13754;DHT22;6948;51.216;6.778;2023-04-24T06:15:09;10.80;99.90
13754;DHT22;6948;51.216;6.778;2023-04-24T06:17:35;10.70;99.90
13754;DHT22;6948;51.216;6.778;2023-04-24T06:20:01;10.60;99.90
13754;DHT22;6948;51.216;6.778;2023-04-24T06:22:26;10.70;99.90
13754;DHT22;6948;51.216;6.778;2023-04-24T06:24:52;10.60;99.90
13754;DHT22;6948;51.216;6.778;2023-04-24T06:27:18;10.60;99.90
13754;DHT22;6948;51.216;6.778;2023-04-24T06:29:43;10.50;99.90
13754;DHT22;6948;51.216;6.778;2023-04-24T06:32:09;10.40;99.90
13754;DHT22;6948;51.216;6.778;2023-04-24T06:34:34;10.40;99.90
13754;DHT22;6948;51.216;6.778;2023-04-24T06:37:01;10.30;99.90
13754;DHT22;6948;51.216;6.778;2023-04-24T06:39:26;10.30;99.90
13754;DHT22;6948;51.216;6.778;2023-04-24T06:41:52;10.30;99.90
13754;DHT22;6948;51.216;6.778;2023-04-24T06:44:17;10.20;99.90
13754;DHT22;6948;51.216;6.778;2023-04-24T06:46:43;10.10;99.90
13754;DHT22;6948;51.216;6.778;2023-04-24T06:49:09;10.10;99.90
13754;DHT22;6948;51.216;6.778;2023-04-24T06:51:35;10.00;99.90
13754;DHT22;6948;51.216;6.778;2023-04-24T06:54:00;9.90;99.90
13754;DHT22;6948;51.216;6.778;2023-04-24T06:56:27;9.80;99.90
13754;DHT22;6948;51.216;6.778;2023-04-24T06:58:54;9.90;99.90
13754;DHT22;6948;51.216;6.778;2023-04-24T07:01:20;9.90;99.90
13754;DHT22;6948;51.216;6.778;2023-04-24T07:03:45;10.00;99.90
13754;DHT22;6948;51.216;6.778;2023-04-24T07:06:11;10.10;99.90
13754;DHT22;6948;51.216;6.778;2023-04-24T07:08:37;9.90;99.90
13754;DHT22;6948;51.216;6.778;2023-04-24T07:11:03;9.90;99.90
13754;DHT22;6948;51.216;6.778;2023-04-24T07:13:29;9.80;99.90
13754;DHT22;6948;51.216;6.778;2023-04-24T07:15:55;9.70;99.90
13754;DHT22;6948;51.216;6.778;2023-04-24T07:18:22;9.70;99.90
13754;DHT22;6948;51.216;6.778;2023-04-24T07:20:48;9.70;99.90
13754;DHT22;6948;51.216;6.778;2023-04-24T07:23:15;9.70;99.90
13754;DHT22;6948;51.216;6.778;2023-04-24T07:25:41;9.70;99.90
13754;DHT22;6948;51.216;6.778;2023-04-24T07:28:07;9.70;99.90
13754;DHT22;6948;51.216;6.778;2023-04-24T07:30:32;9.70;99.90
13754;DHT22;6948;51.216;6.778;2023-04-24T07:32:58;9.80;99.90
13754;DHT22;6948;51.216;6.778;2023-04-24T07:35:24;9.70;99.90
13754;DHT22;6948;51.216;6.778;2023-04-24T07:37:52;9.60;99.90
13754;DHT22;6948;51.216;6.778;2023-04-24T07:40:18;9.30;99.90
13754;DHT22;6948;51.216;6.778;2023-04-24T07:42:44;9.10;99.90
13754;DHT22;6948;51.216;6.778;2023-04-24T07:45:09;8.80;99.90
13754;DHT22;6948;51.216;6.778;2023-04-24T07:47:35;8.80;99.90
13754;DHT22;6948;51.216;6.778;2023-04-24T07:50:03;8.80;99.90
13754;DHT22;6948;51.216;6.778;2023-04-24T07:52:28;8.80;99.90
13754;DHT22;6948;51.216;6.778;2023-04-24T07:54:55;8.70;99.90
13754;DHT22;6948;51.216;6.778;2023-04-24T07:57:24;8.60;99.90
13754;DHT22;6948;51.216;6.778;2023-04-24T07:59:50;8.50;99.90
13754;DHT22;6948;51.216;6.778;2023-04-24T08:02:16;8.50;99.90
13754;DHT22;6948;51.216;6.778;2023-04-24T08:04:42;8.40;99.90
13754;DHT22;6948;51.216;6.778;2023-04-24T08:07:07;8.40;99.90
13754;DHT22;6948;51.216;6.778;2023-04-24T08:09:33;8.40;99.90
13754;DHT22;6948;51.216;6.778;2023-04-24T08:11:59;8.40;99.90
13754;DHT22;6948;51.216;6.778;2023-04-24T08:14:25;8.50;99.90
13754;DHT22;6948;51.216;6.778;2023-04-24T08:16:53;8.50;99.90
13754;DHT22;6948;51.216;6.778;2023-04-24T08:19:19;8.50;99.90
13754;DHT22;6948;51.216;6.778;2023-04-24T08:21:44;8.50;99.90
13754;DHT22;6948;51.216;6.778;2023-04-24T08:24:10;8.50;99.90
13754;DHT22;6948;51.216;6.778;2023-04-24T08:26:36;8.50;99.90
13754;DHT22;6948;51.216;6.778;2023-04-24T08:29:01;8.60;99.90
13754;DHT22;6948;51.216;6.778;2023-04-24T08:31:27;8.60;99.90
13754;DHT22;6948;51.216;6.778;2023-04-24T08:33:53;8.60;99.90
13754;DHT22;6948;51.216;6.778;2023-04-24T08:36:18;8.70;99.90
13754;DHT22;6948;51.216;6.778;2023-04-24T08:38:44;8.70;99.90
13754;DHT22;6948;51.216;6.778;2023-04-24T08:41:11;8.70;99.90
13754;DHT22;6948;51.216;6.778;2023-04-24T08:43:40;8.80;99.90
13754;DHT22;6948;51.216;6.778;2023-04-24T08:46:06;8.80;99.90
13754;DHT22;6948;51.216;6.778;2023-04-24T08:48:32;8.90;99.90
13754;DHT22;6948;51.216;6.778;2023-04-24T08:50:58;8.90;99.90
13754;DHT22;6948;51.216;6.778;2023-04-24T08:53:25;8.90;99.90
13754;DHT22;6948;51.216;6.778;2023-04-24T08:55:51;8.90;99.90
13754;DHT22;6948;51.216;6.778;2023-04-24T08:58:19;8.90;99.90
13754;DHT22;6948;51.216;6.778;2023-04-24T09:00:45;9.00;99.90
13754;DHT22;6948;51.216;6.778;2023-04-24T09:03:14;9.00;99.90
13754;DHT22;6948;51.216;6.778;2023-04-24T09:05:42;9.00;99.90
13754;DHT22;6948;51.216;6.778;2023-04-24T09:08:12;8.90;99.90
13754;DHT22;6948;51.216;6.778;2023-04-24T09:10:40;8.90;99.90
13754;DHT22;6948;51.216;6.778;2023-04-24T09:13:06;8.90;99.90
13754;DHT22;6948;51.216;6.778;2023-04-24T09:15:34;9.00;99.90
13754;DHT22;6948;51.216;6.778;2023-04-24T09:18:01;9.00;99.90
13754;DHT22;6948;51.216;6.778;2023-04-24T09:20:27;9.00;99.90
13754;DHT22;6948;51.216;6.778;2023-04-24T09:22:54;9.00;99.90
13754;DHT22;6948;51.216;6.778;2023-04-24T09:25:22;9.00;99.90
13754;DHT22;6948;51.216;6.778;2023-04-24T09:27:47;8.90;99.90
13754;DHT22;6948;51.216;6.778;2023-04-24T09:30:14;9.00;99.90
13754;DHT22;6948;51.216;6.778;2023-04-24T09:32:46;8.90;99.90
13754;DHT22;6948;51.216;6.778;2023-04-24T09:35:13;8.80;99.90
13754;DHT22;6948;51.216;6.778;2023-04-24T09:37:41;8.80;99.90
13754;DHT22;6948;51.216;6.778;2023-04-24T09:40:09;8.80;99.90
13754;DHT22;6948;51.216;6.778;2023-04-24T09:42:37;8.80;99.90
13754;DHT22;6948;51.216;6.778;2023-04-24T09:45:02;8.80;99.90
13754;DHT22;6948;51.216;6.778;2023-04-24T09:47:36;8.90;99.90
13754;DHT22;6948;51.216;6.778;2023-04-24T09:50:11;8.90;99.90
13754;DHT22;6948;51.216;6.778;2023-04-24T09:52:40;9.00;99.90
13754;DHT22;6948;51.216;6.778;2023-04-24T09:55:12;9.10;99.90
13754;DHT22;6948;51.216;6.778;2023-04-24T09:57:50;9.10;99.90
13754;DHT22;6948;51.216;6.778;2023-04-24T10:00:20;9.10;99.90
13754;DHT22;6948;51.216;6.778;2023-04-24T10:02:50;9.20;99.90
13754;DHT22;6948;51.216;6.778;2023-04-24T10:05:16;9.20;99.90
13754;DHT22;6948;51.216;6.778;2023-04-24T10:07:43;9.30;99.90
13754;DHT22;6948;51.216;6.778;2023-04-24T10:10:09;9.30;99.90
13754;DHT22;6948;51.216;6.778;2023-04-24T10:12:35;9.30;99.90
13754;DHT22;6948;51.216;6.778;2023-04-24T10:15:02;9.30;99.90
13754;DHT22;6948;51.216;6.778;2023-04-24T10:17:28;9.30;99.90
13754;DHT22;6948;51.216;6.778;2023-04-24T10:19:55;9.30;99.90
13754;DHT22;6948;51.216;6.778;2023-04-24T10:22:21;9.30;99.90
13754;DHT22;6948;51.216;6.778;2023-04-24T10:24:49;9.40;99.90
13754;DHT22;6948;51.216;6.778;2023-04-24T10:27:16;9.40;99.90
13754;DHT22;6948;51.216;6.778;2023-04-24T10:29:43;9.50;99.90
13754;DHT22;6948;51.216;6.778;2023-04-24T10:32:09;9.60;99.90
13754;DHT22;6948;51.216;6.778;2023-04-24T10:34:36;9.60;99.90
13754;DHT22;6948;51.216;6.778;2023-04-24T10:37:02;9.60;99.90
13754;DHT22;6948;51.216;6.778;2023-04-24T10:39:29;9.60;99.90
13754;DHT22;6948;51.216;6.778;2023-04-24T10:41:56;9.60;99.90
13754;DHT22;6948;51.216;6.778;2023-04-24T10:44:24;9.60;99.90
13754;DHT22;6948;51.216;6.778;2023-04-24T10:46:54;9.60;99.90
13754;DHT22;6948;51.216;6.778;2023-04-24T10:49:30;9.60;99.90
13754;DHT22;6948;51.216;6.778;2023-04-24T10:52:02;9.60;99.90
13754;DHT22;6948;51.216;6.778;2023-04-24T10:54:35;9.50;99.90
13754;DHT22;6948;51.216;6.778;2023-04-24T10:57:29;9.50;99.90
13754;DHT22;6948;51.216;6.778;2023-04-24T11:00:18;9.60;99.90
13754;DHT22;6948;51.216;6.778;2023-04-24T11:02:46;9.80;99.90
13754;DHT22;6948;51.216;6.778;2023-04-24T11:05:16;9.90;99.90
13754;DHT22;6948;51.216;6.778;2023-04-24T11:08:10;10.10;99.90
13754;DHT22;6948;51.216;6.778;2023-04-24T11:10:43;10.20;99.90
13754;DHT22;6948;51.216;6.778;2023-04-24T11:13:09;10.20;99.90
13754;DHT22;6948;51.216;6.778;2023-04-24T11:15:35;10.30;99.90
13754;DHT22;6948;51.216;6.778;2023-04-24T11:18:01;10.20;99.90
13754;DHT22;6948;51.216;6.778;2023-04-24T11:20:26;10.10;99.90
13754;DHT22;6948;51.216;6.778;2023-04-24T11:22:53;10.10;99.90
13754;DHT22;6948;51.216;6.778;2023-04-24T11:25:21;10.10;99.90
13754;DHT22;6948;51.216;6.778;2023-04-24T11:27:49;10.10;99.90
13754;DHT22;6948;51.216;6.778;2023-04-24T11:30:20;10.00;99.90
13754;DHT22;6948;51.216;6.778;2023-04-24T11:32:50;10.10;99.90
13754;DHT22;6948;51.216;6.778;2023-04-24T11:35:19;10.10;99.90
13754;DHT22;6948;51.216;6.778;2023-04-24T11:37:48;10.20;99.90
13754;DHT22;6948;51.216;6.778;2023-04-24T11:40:16;10.20;99.90
13754;DHT22;6948;51.216;6.778;2023-04-24T11:42:44;10.30;99.90
13754;DHT22;6948;51.216;6.778;2023-04-24T11:45:15;10.40;99.90
13754;DHT22;6948;51.216;6.778;2023-04-24T11:47:42;10.60;99.90
13754;DHT22;6948;51.216;6.778;2023-04-24T11:50:11;10.70;99.90
13754;DHT22;6948;51.216;6.778;2023-04-24T11:52:39;10.70;99.90
13754;DHT22;6948;51.216;6.778;2023-04-24T11:55:23;10.70;99.90
13754;DHT22;6948;51.216;6.778;2023-04-24T11:57:50;10.60;99.90
13754;DHT22;6948;51.216;6.778;2023-04-24T12:03:04;10.50;99.90
13754;DHT22;6948;51.216;6.778;2023-04-24T12:05:30;10.40;99.90
13754;DHT22;6948;51.216;6.778;2023-04-24T12:07:56;10.50;99.90
13754;DHT22;6948;51.216;6.778;2023-04-24T12:10:23;10.50;99.90
13754;DHT22;6948;51.216;6.778;2023-04-24T12:12:50;10.50;99.90
13754;DHT22;6948;51.216;6.778;2023-04-24T12:15:18;10.60;99.90
13754;DHT22;6948;51.216;6.778;2023-04-24T12:17:45;10.60;99.90
13754;DHT22;6948;51.216;6.778;2023-04-24T12:20:12;10.80;99.90
13754;DHT22;6948;51.216;6.778;2023-04-24T12:25:24;10.90;99.90
13754;DHT22;6948;51.216;6.778;2023-04-24T12:27:53;11.00;99.90
13754;DHT22;6948;51.216;6.778;2023-04-24T12:30:20;11.10;99.90
13754;DHT22;6948;51.216;6.778;2023-04-24T12:32:47;11.20;99.90
13754;DHT22;6948;51.216;6.778;2023-04-24T12:35:22;11.40;99.90
13754;DHT22;6948;51.216;6.778;2023-04-24T12:37:48;11.60;99.90
13754;DHT22;6948;51.216;6.778;2023-04-24T12:40:14;11.60;99.90
13754;DHT22;6948;51.216;6.778;2023-04-24T12:42:43;11.70;99.90
13754;DHT22;6948;51.216;6.778;2023-04-24T12:45:09;11.70;99.90
13754;DHT22;6948;51.216;6.778;2023-04-24T12:47:38;11.70;99.90
13754;DHT22;6948;51.216;6.778;2023-04-24T12:50:04;11.80;99.90
13754;DHT22;6948;51.216;6.778;2023-04-24T12:52:31;11.80;99.90
13754;DHT22;6948;51.216;6.778;2023-04-24T12:54:58;11.80;99.90
13754;DHT22;6948;51.216;6.778;2023-04-24T12:57:25;11.80;99.90
13754;DHT22;6948;51.216;6.778;2023-04-24T12:59:54;11.80;99.90
13754;DHT22;6948;51.216;6.778;2023-04-24T13:02:20;11.70;1.00
13754;DHT22;6948;51.216;6.778;2023-04-24T13:04:47;11.60;1.00
13754;DHT22;6948;51.216;6.778;2023-04-24T13:07:13;11.60;1.00
13754;DHT22;6948;51.216;6.778;2023-04-24T13:09:40;11.60;1.00
13754;DHT22;6948;51.216;6.778;2023-04-24T13:12:07;11.70;1.00
13754;DHT22;6948;51.216;6.778;2023-04-24T13:14:33;11.80;1.00
13754;DHT22;6948;51.216;6.778;2023-04-24T13:16:59;11.80;1.00
13754;DHT22;6948;51.216;6.778;2023-04-24T13:19:25;11.90;1.00
13754;DHT22;6948;51.216;6.778;2023-04-24T13:21:52;11.90;1.00
13754;DHT22;6948;51.216;6.778;2023-04-24T13:24:18;11.80;1.00
13754;DHT22;6948;51.216;6.778;2023-04-24T13:26:45;11.80;1.00
13754;DHT22;6948;51.216;6.778;2023-04-24T13:29:11;11.70;1.00
13754;DHT22;6948;51.216;6.778;2023-04-24T13:31:36;11.70;1.00
13754;DHT22;6948;51.216;6.778;2023-04-24T13:34:02;11.80;1.00
13754;DHT22;6948;51.216;6.778;2023-04-24T13:36:29;11.90;1.00
13754;DHT22;6948;51.216;6.778;2023-04-24T13:38:55;12.00;1.00
13754;DHT22;6948;51.216;6.778;2023-04-24T13:41:21;12.10;1.00
13754;DHT22;6948;51.216;6.778;2023-04-24T13:43:47;12.00;1.00
13754;DHT22;6948;51.216;6.778;2023-04-24T13:46:12;11.80;1.00
13754;DHT22;6948;51.216;6.778;2023-04-24T13:48:38;11.80;1.00
13754;DHT22;6948;51.216;6.778;2023-04-24T13:51:04;11.70;1.00
13754;DHT22;6948;51.216;6.778;2023-04-24T13:53:29;11.70;1.00
13754;DHT22;6948;51.216;6.778;2023-04-24T13:55:55;11.60;1.00
13754;DHT22;6948;51.216;6.778;2023-04-24T13:58:21;11.50;1.00
13754;DHT22;6948;51.216;6.778;2023-04-24T14:00:46;11.50;1.00
13754;DHT22;6948;51.216;6.778;2023-04-24T14:03:12;11.50;1.00
13754;DHT22;6948;51.216;6.778;2023-04-24T14:05:38;11.60;1.00
13754;DHT22;6948;51.216;6.778;2023-04-24T14:08:04;11.60;1.00
13754;DHT22;6948;51.216;6.778;2023-04-24T14:10:30;11.60;1.00
13754;DHT22;6948;51.216;6.778;2023-04-24T14:12:55;11.60;1.00
13754;DHT22;6948;51.216;6.778;2023-04-24T14:15:21;11.60;1.00
13754;DHT22;6948;51.216;6.778;2023-04-24T14:17:48;11.50;1.00
13754;DHT22;6948;51.216;6.778;2023-04-24T14:20:14;11.60;1.00
13754;DHT22;6948;51.216;6.778;2023-04-24T14:22:39;11.60;1.00
13754;DHT22;6948;51.216;6.778;2023-04-24T14:25:06;11.60;1.00
13754;DHT22;6948;51.216;6.778;2023-04-24T14:27:32;11.60;1.00
13754;DHT22;6948;51.216;6.778;2023-04-24T14:29:57;11.60;1.00
13754;DHT22;6948;51.216;6.778;2023-04-24T14:32:23;11.60;1.00
13754;DHT22;6948;51.216;6.778;2023-04-24T14:34:49;11.60;1.00
13754;DHT22;6948;51.216;6.778;2023-04-24T14:37:15;11.60;1.00
13754;DHT22;6948;51.216;6.778;2023-04-24T14:39:40;11.70;1.00
13754;DHT22;6948;51.216;6.778;2023-04-24T14:42:06;11.70;1.00
13754;DHT22;6948;51.216;6.778;2023-04-24T14:44:32;11.80;1.00
13754;DHT22;6948;51.216;6.778;2023-04-24T14:46:58;11.80;1.00
13754;DHT22;6948;51.216;6.778;2023-04-24T14:49:24;11.90;1.00
13754;DHT22;6948;51.216;6.778;2023-04-24T14:51:50;11.90;1.00
13754;DHT22;6948;51.216;6.778;2023-04-24T14:54:15;11.90;1.00
13754;DHT22;6948;51.216;6.778;2023-04-24T14:56:41;11.90;1.00
13754;DHT22;6948;51.216;6.778;2023-04-24T14:59:09;12.00;1.00
13754;DHT22;6948;51.216;6.778;2023-04-24T15:01:34;12.00;1.00
13754;DHT22;6948;51.216;6.778;2023-04-24T15:04:00;11.90;1.00
13754;DHT22;6948;51.216;6.778;2023-04-24T15:06:25;11.90;1.00
13754;DHT22;6948;51.216;6.778;2023-04-24T15:08:51;11.90;1.00
13754;DHT22;6948;51.216;6.778;2023-04-24T15:11:17;11.80;1.00
13754;DHT22;6948;51.216;6.778;2023-04-24T15:13:43;11.90;1.00
13754;DHT22;6948;51.216;6.778;2023-04-24T15:16:10;12.10;1.00
13754;DHT22;6948;51.216;6.778;2023-04-24T15:18:36;12.20;1.00
13754;DHT22;6948;51.216;6.778;2023-04-24T15:21:02;12.30;1.00
13754;DHT22;6948;51.216;6.778;2023-04-24T15:23:27;12.20;99.90
13754;DHT22;6948;51.216;6.778;2023-04-24T15:25:53;12.30;1.00
13754;DHT22;6948;51.216;6.778;2023-04-24T15:28:19;12.40;44.40
13754;DHT22;6948;51.216;6.778;2023-04-24T15:30:47;12.30;99.90
13754;DHT22;6948;51.216;6.778;2023-04-24T15:33:13;12.20;99.90
13754;DHT22;6948;51.216;6.778;2023-04-24T15:35:38;12.30;99.90
13754;DHT22;6948;51.216;6.778;2023-04-24T15:38:04;12.10;99.90
13754;DHT22;6948;51.216;6.778;2023-04-24T15:40:30;12.30;99.90
13754;DHT22;6948;51.216;6.778;2023-04-24T15:42:55;12.20;99.90
13754;DHT22;6948;51.216;6.778;2023-04-24T15:45:22;12.20;1.00
13754;DHT22;6948;51.216;6.778;2023-04-24T15:47:47;12.20;1.00
13754;DHT22;6948;51.216;6.778;2023-04-24T15:50:13;12.30;1.00
13754;DHT22;6948;51.216;6.778;2023-04-24T15:52:41;12.30;1.00